createdAt,value
2023-02-19T00:01:33.625Z,99997.13
2023-02-19T00:04:06.079Z,99995.88
2023-02-19T00:06:34.381Z,99992.16
2023-02-19T00:09:01.724Z,100004.97
2023-02-19T00:11:31.883Z,99993.38
2023-02-19T00:14:00.049Z,100002.28
2023-02-19T00:16:32.910Z,100001.50
2023-02-19T00:19:06.776Z,99997.69
2023-02-19T00:21:34.169Z,99996.81
2023-02-19T00:24:04.514Z,99984.78
2023-02-19T00:26:32.051Z,99976.47
2023-02-19T00:28:59.269Z,99983.47
2023-02-19T00:31:33.204Z,99976.38
2023-02-19T00:34:06.488Z,99965.22
2023-02-19T00:36:38.726Z,99972.81
2023-02-19T00:39:07.593Z,99962.28
2023-02-19T00:41:35.186Z,99973.47
2023-02-19T00:44:04.839Z,99973.66
2023-02-19T00:46:42.872Z,99969.75
2023-02-19T00:49:15.283Z,99963.47
2023-02-19T00:51:47.325Z,99975.31
2023-02-19T00:54:15.036Z,99971.38
2023-02-19T00:56:42.455Z,99959.41
2023-02-19T00:59:09.737Z,99949.47
2023-02-19T01:01:37.173Z,99950.28
2023-02-19T01:04:06.550Z,99941.81
2023-02-19T01:06:34.842Z,99937.38
2023-02-19T01:09:01.701Z,99931.16
2023-02-19T01:11:28.568Z,99926.50
2023-02-19T01:13:59.854Z,99942.59
2023-02-19T01:16:29.577Z,99942.22
2023-02-19T01:18:57.715Z,99930.19
2023-02-19T01:21:26.679Z,99924.38
2023-02-19T01:23:53.810Z,99917.34
2023-02-19T01:26:26.848Z,99935.00
2023-02-19T01:28:53.906Z,99936.22
2023-02-19T01:31:25.522Z,99928.38
2023-02-19T01:33:58.431Z,99927.56
2023-02-19T01:36:26.173Z,99926.75
2023-02-19T01:38:53.459Z,99920.16
2023-02-19T01:41:25.898Z,99917.28
2023-02-19T01:44:11.754Z,99905.69
2023-02-19T01:46:48.944Z,99893.03
2023-02-19T01:49:18.436Z,99898.91
2023-02-19T01:51:49.749Z,99891.31
2023-02-19T01:54:18.416Z,99887.78
2023-02-19T01:56:48.711Z,99893.78
2023-02-19T02:01:43.448Z,99888.47
2023-02-19T02:04:12.178Z,99869.94
2023-02-19T02:06:57.870Z,99878.63
2023-02-19T02:09:46.428Z,99876.19
2023-02-19T02:12:14.103Z,99878.88
2023-02-19T02:14:47.517Z,99864.63
2023-02-19T02:17:20.687Z,99869.19
2023-02-19T02:20:19.217Z,99872.53
2023-02-19T02:22:45.979Z,99872.53
2023-02-19T02:25:18.488Z,99853.13
2023-02-19T02:27:53.844Z,99855.19
2023-02-19T02:30:32.769Z,99856.69
2023-02-19T02:33:18.323Z,99858.94
2023-02-19T02:35:53.163Z,99856.84
2023-02-19T02:38:30.778Z,99853.56
2023-02-19T02:40:58.697Z,99858.56
2023-02-19T02:43:41.549Z,99853.56
2023-02-19T02:46:12.351Z,99846.56
2023-02-19T02:49:03.517Z,99856.50
2023-02-19T02:51:34.677Z,99850.91
2023-02-19T02:56:48.438Z,99821.34
2023-02-19T02:59:18.400Z,99832.53
2023-02-19T03:02:11.657Z,99825.66
2023-02-19T03:05:18.295Z,99822.97
2023-02-19T03:08:04.174Z,99805.38
2023-02-19T03:10:37.557Z,99822.97
2023-02-19T03:16:06.360Z,99826.28
2023-02-19T03:18:57.642Z,99825.66
2023-02-19T03:21:26.011Z,99826.69
2023-02-19T03:24:14.695Z,99860.16
2023-02-19T03:26:47.033Z,99814.41
2023-02-19T03:29:18.433Z,99813.81
2023-02-19T03:31:47.579Z,99812.94
2023-02-19T03:34:18.641Z,99822.47
2023-02-19T03:36:53.034Z,99817.06
2023-02-19T03:39:23.426Z,99802.56
2023-02-19T03:42:00.460Z,99803.34
2023-02-19T03:44:39.192Z,99824.84
2023-02-19T03:49:50.059Z,99818.25
2023-02-19T03:52:17.401Z,99808.91
2023-02-19T03:54:47.028Z,99807.50
2023-02-19T03:57:17.454Z,99803.34
2023-02-19T03:59:55.825Z,99796.31
2023-02-19T04:02:39.892Z,99804.97
2023-02-19T04:05:14.243Z,99805.13
2023-02-19T04:07:46.830Z,99810.75
2023-02-19T04:10:15.286Z,99824.41
2023-02-19T04:12:48.726Z,99826.94
2023-02-19T04:15:20.773Z,99813.69
2023-02-19T04:17:58.923Z,99802.75
2023-02-19T04:20:29.920Z,99801.53
2023-02-19T04:22:57.329Z,99806.69
2023-02-19T04:25:26.364Z,99815.00
2023-02-19T04:27:53.259Z,99814.56
2023-02-19T04:30:21.963Z,99819.13
2023-02-19T04:32:48.872Z,99824.44
2023-02-19T04:35:15.624Z,99817.38
2023-02-19T04:37:45.558Z,99819.47
2023-02-19T04:40:12.261Z,99819.47
2023-02-19T04:42:39.805Z,99814.91
2023-02-19T04:45:06.884Z,99823.22
2023-02-19T04:47:33.808Z,99816.56
2023-02-19T04:50:00.580Z,99805.88
2023-02-19T04:52:27.397Z,99818.09
2023-02-19T04:54:54.239Z,99817.69
2023-02-19T04:57:21.323Z,99825.28
2023-02-19T04:59:51.521Z,99842.66
2023-02-19T05:02:18.898Z,99841.00
2023-02-19T05:04:45.635Z,99839.34
2023-02-19T05:07:12.553Z,99840.13
2023-02-19T05:09:40.013Z,99842.81
2023-02-19T05:12:07.011Z,99843.22
2023-02-19T05:14:37.022Z,99882.28
2023-02-19T05:17:03.830Z,99859.88
2023-02-19T05:19:30.691Z,99853.25
2023-02-19T05:21:57.695Z,99869.63
2023-02-19T05:24:24.671Z,99867.75
2023-02-19T05:26:51.444Z,99873.06
2023-02-19T05:29:19.157Z,99872.19
2023-02-19T05:31:47.799Z,99868.38
2023-02-19T05:34:15.187Z,99878.09
2023-02-19T05:36:42.097Z,99882.38
2023-02-19T05:39:12.328Z,99876.97
2023-02-19T05:41:39.568Z,99880.66
2023-02-19T05:44:06.437Z,99865.38
2023-02-19T05:46:33.456Z,99877.34
2023-02-19T05:49:00.284Z,99870.31
2023-02-19T05:51:27.918Z,99880.59
2023-02-19T05:53:56.656Z,99886.78
2023-02-19T05:56:26.914Z,99873.63
2023-02-19T05:58:54.770Z,99880.66
2023-02-19T06:01:24.348Z,99888.06
2023-02-19T06:03:57.238Z,99879.91
2023-02-19T06:06:25.173Z,99896.28
2023-02-19T06:08:52.059Z,99892.41
2023-02-19T06:11:19.626Z,99889.97
2023-02-19T06:13:46.952Z,99893.75
2023-02-19T06:18:42.851Z,99893.78
2023-02-19T06:21:13.587Z,99894.25
2023-02-19T06:23:41.516Z,99887.97
2023-02-19T06:26:12.169Z,99909.16
2023-02-19T06:28:42.223Z,99897.59
2023-02-19T06:31:10.343Z,99911.09
2023-02-19T06:33:41.622Z,99910.06
2023-02-19T06:36:14.963Z,99898.91
2023-02-19T06:38:42.059Z,99917.34
2023-02-19T06:41:11.562Z,99907.28
2023-02-19T06:43:39.059Z,99905.22
2023-02-19T06:46:08.254Z,99914.72
2023-02-19T06:48:36.026Z,99917.22
2023-02-19T06:51:03.357Z,99924.91
2023-02-19T06:53:30.862Z,99926.31
2023-02-19T06:56:19.642Z,99923.88
2023-02-19T06:58:46.765Z,99946.00
2023-02-19T07:01:13.635Z,99935.91
2023-02-19T07:03:40.938Z,99943.72
2023-02-19T07:06:07.993Z,99946.22
2023-02-19T07:08:35.188Z,99936.78
2023-02-19T07:11:02.478Z,99954.19
2023-02-19T07:13:29.168Z,99951.63
2023-02-19T07:16:01.226Z,99953.50
2023-02-19T07:18:28.646Z,99968.16
2023-02-19T07:20:55.757Z,99952.03
2023-02-19T07:23:28.837Z,99989.34
2023-02-19T07:25:55.719Z,99969.06
2023-02-19T07:28:22.615Z,99980.06
2023-02-19T07:30:49.308Z,99970.72
2023-02-19T07:35:50.346Z,99980.50
2023-02-19T07:38:18.543Z,99976.78
2023-02-19T07:40:59.201Z,99991.06
2023-02-19T07:43:27.376Z,99987.81
2023-02-19T07:45:54.324Z,99996.50
2023-02-19T07:48:21.792Z,99991.13
2023-02-19T07:50:59.444Z,100001.00
2023-02-19T07:53:27.514Z,100001.44
2023-02-19T07:55:54.543Z,100010.97
2023-02-19T07:58:22.411Z,100017.25
2023-02-19T08:00:49.191Z,100000.22
2023-02-19T08:03:15.951Z,100007.72
2023-02-19T08:05:43.984Z,100018.81
2023-02-19T08:08:15.368Z,100022.91
2023-02-19T08:11:00.949Z,100026.00
2023-02-19T08:13:30.508Z,100030.97
2023-02-19T08:16:16.916Z,100025.47
2023-02-19T08:18:43.687Z,100029.72
2023-02-19T08:21:11.142Z,100048.19
2023-02-19T08:23:38.089Z,100042.84
2023-02-19T08:26:05.918Z,100035.13
2023-02-19T08:28:33.636Z,100048.38
2023-02-19T08:31:05.155Z,100051.66
2023-02-19T08:33:31.948Z,100051.19
2023-02-19T08:36:04.861Z,100055.31
2023-02-19T08:38:34.160Z,100086.63
2023-02-19T08:41:07.769Z,100083.91
2023-02-19T08:43:35.036Z,100089.03
2023-02-19T08:46:07.233Z,100085.28
2023-02-19T08:48:34.166Z,100095.13
2023-02-19T08:51:07.556Z,100099.66
2023-02-19T08:53:35.803Z,100101.34
2023-02-19T08:56:07.415Z,100120.09
2023-02-19T08:58:34.223Z,100126.91
2023-02-19T09:01:01.060Z,100129.44
2023-02-19T09:03:28.092Z,100116.31
2023-02-19T09:05:55.010Z,100132.81
2023-02-19T09:08:21.694Z,100140.50
2023-02-19T09:11:02.759Z,100134.16
2023-02-19T09:13:29.548Z,100136.28
2023-02-19T09:16:00.348Z,100138.97
2023-02-19T09:18:27.280Z,100140.63
2023-02-19T09:20:54.021Z,100142.06
2023-02-19T09:23:21.069Z,100140.25
2023-02-19T09:25:47.831Z,100136.91
2023-02-19T09:28:14.597Z,100149.28
2023-02-19T09:30:41.379Z,100144.22
2023-02-19T09:33:08.078Z,100141.72
2023-02-19T09:35:34.769Z,100135.88
2023-02-19T09:38:02.290Z,100131.63
2023-02-19T09:40:30.741Z,100128.84
2023-02-19T09:42:59.776Z,100124.13
2023-02-19T09:45:27.764Z,100122.06
2023-02-19T09:47:57.318Z,100126.19
2023-02-19T09:50:47.265Z,100132.38
2023-02-19T09:55:44.694Z,100151.63
2023-02-19T09:58:17.677Z,100171.13
2023-02-19T10:00:50.072Z,100162.81
2023-02-19T10:05:43.858Z,100165.13
2023-02-19T10:10:44.539Z,100169.34
2023-02-19T10:13:17.609Z,100168.84
2023-02-19T10:15:57.071Z,100171.34
2023-02-19T10:18:28.492Z,100168.03
2023-02-19T10:20:56.974Z,100177.63
2023-02-19T10:23:25.227Z,100190.06
2023-02-19T10:26:01.233Z,100186.22
2023-02-19T10:28:35.043Z,100186.97
2023-02-19T10:31:06.061Z,100195.38
2023-02-19T10:33:32.994Z,100193.78
2023-02-19T10:36:16.187Z,100194.66
2023-02-19T10:38:47.930Z,100202.75
2023-02-19T10:41:18.575Z,100205.81
2023-02-19T10:44:15.137Z,100206.22
2023-02-19T10:46:48.498Z,100206.59
2023-02-19T10:49:22.514Z,100212.88
2023-02-19T10:51:50.043Z,100209.09
2023-02-19T10:54:19.156Z,100213.38
2023-02-19T10:56:47.352Z,100208.94
2023-02-19T10:59:18.694Z,100225.19
2023-02-19T11:02:00.299Z,100228.06
2023-02-19T11:04:32.729Z,100237.63
2023-02-19T11:07:08.169Z,100236.41
2023-02-19T11:09:39.687Z,100228.00
2023-02-19T11:12:09.466Z,100234.03
2023-02-19T11:14:43.518Z,100238.38
2023-02-19T11:17:18.748Z,100241.66
2023-02-19T11:19:48.760Z,100245.44
2023-02-19T11:22:17.630Z,100247.41
2023-02-19T11:24:50.126Z,100251.78
2023-02-19T11:27:17.654Z,100238.94
2023-02-19T11:29:44.935Z,100246.00
2023-02-19T11:32:17.768Z,100254.47
2023-02-19T11:34:44.692Z,100252.41
2023-02-19T11:37:18.627Z,100257.69
2023-02-19T11:39:48.730Z,100261.94
2023-02-19T11:42:17.671Z,100254.66
2023-02-19T11:44:44.326Z,100268.47
2023-02-19T11:47:17.862Z,100274.22
2023-02-19T11:50:15.852Z,100282.34
2023-02-19T11:52:46.884Z,100280.28
2023-02-19T11:55:13.681Z,100272.34
2023-02-19T11:57:44.406Z,100272.53
2023-02-19T12:00:19.076Z,100270.66
2023-02-19T12:06:09.949Z,100288.81
2023-02-19T12:09:00.077Z,100292.47
2023-02-19T12:11:59.664Z,100277.91
2023-02-19T12:14:51.217Z,100288.97
2023-02-19T12:17:17.761Z,100273.91
2023-02-19T12:20:18.736Z,100269.38
2023-02-19T12:23:18.700Z,100268.59
2023-02-19T12:25:48.675Z,100281.69
2023-02-19T12:28:18.725Z,100269.16
2023-02-19T12:31:18.708Z,100291.72
2023-02-19T12:34:05.273Z,100279.69
2023-02-19T12:37:06.822Z,100280.69
2023-02-19T12:40:03.430Z,100286.06
2023-02-19T12:42:50.793Z,100289.66
2023-02-19T12:45:18.868Z,100308.69
2023-02-19T12:47:59.000Z,100304.66
2023-02-19T12:50:32.840Z,100302.78
2023-02-19T12:53:23.874Z,100302.28
2023-02-19T12:55:53.444Z,100295.59
2023-02-19T12:58:33.454Z,100297.72
2023-02-19T13:01:00.799Z,100299.59
2023-02-19T13:03:43.782Z,100297.53
2023-02-19T13:06:19.126Z,100279.53
2023-02-19T13:09:06.331Z,100286.19
2023-02-19T13:11:50.264Z,100279.06
2023-02-19T13:14:18.729Z,100267.75
2023-02-19T13:16:54.120Z,100266.84
2023-02-19T13:19:20.891Z,100255.28
2023-02-19T13:22:15.154Z,100256.91
2023-02-19T13:24:45.854Z,100259.56
2023-02-19T13:27:18.677Z,100255.59
2023-02-19T13:30:04.363Z,100248.88
2023-02-19T13:32:49.143Z,100255.72
2023-02-19T13:35:16.175Z,100258.66
2023-02-19T13:37:44.745Z,100260.69
2023-02-19T13:40:19.350Z,100254.41
2023-02-19T13:42:55.970Z,100261.72
2023-02-19T13:45:31.722Z,100278.31
2023-02-19T13:47:58.415Z,100271.78
2023-02-19T13:50:26.848Z,100278.59
2023-02-19T13:52:55.924Z,100269.44
2023-02-19T13:55:46.357Z,100277.50
2023-02-19T13:58:18.786Z,100302.25
2023-02-19T14:00:51.586Z,100277.97
2023-02-19T14:03:43.942Z,100289.97
2023-02-19T14:06:11.048Z,100290.41
2023-02-19T14:08:58.400Z,100299.84
2023-02-19T14:12:16.396Z,100307.19
2023-02-19T14:14:54.537Z,100304.09
2023-02-19T14:17:24.114Z,100308.69
2023-02-19T14:20:04.823Z,100306.34
2023-02-19T14:22:47.192Z,100324.63
2023-02-19T14:25:19.053Z,100314.72
2023-02-19T14:27:46.324Z,100316.88
2023-02-19T14:32:45.254Z,100312.22
2023-02-19T14:35:19.038Z,100312.22
2023-02-19T14:37:55.617Z,100318.50
2023-02-19T14:40:41.842Z,100324.09
2023-02-19T14:43:14.733Z,100335.50
2023-02-19T14:45:48.281Z,100329.50
2023-02-19T14:50:48.481Z,100343.91
2023-02-19T14:55:53.071Z,100342.25
2023-02-19T14:58:30.771Z,100343.44
2023-02-19T15:00:58.035Z,100333.97
2023-02-19T15:03:28.743Z,100348.44
2023-02-19T15:06:13.609Z,100336.53
2023-02-19T15:08:46.961Z,100333.41
2023-02-19T15:11:19.913Z,100330.22
2023-02-19T15:14:03.495Z,100323.59
2023-02-19T15:16:36.653Z,100325.22
2023-02-19T15:19:08.288Z,100328.75
2023-02-19T15:21:39.894Z,100325.75
2023-02-19T15:24:07.538Z,100329.28
2023-02-19T15:26:43.552Z,100335.59
2023-02-19T15:29:13.440Z,100342.66
2023-02-19T15:31:49.537Z,100334.47
2023-02-19T15:34:18.816Z,100330.47
2023-02-19T15:36:46.581Z,100330.44
2023-02-19T15:39:18.879Z,100333.44
2023-02-19T15:41:52.241Z,100334.13
2023-02-19T15:44:20.055Z,100331.91
2023-02-19T15:46:47.558Z,100333.59
2023-02-19T15:49:18.806Z,100342.88
2023-02-19T15:51:52.475Z,100348.47
2023-02-19T15:54:34.777Z,100351.78
2023-02-19T15:57:09.517Z,100354.81
2023-02-19T15:59:45.883Z,100356.56
2023-02-19T16:02:14.801Z,100359.16
2023-02-19T16:04:44.180Z,100369.56
2023-02-19T16:07:18.761Z,100373.03
2023-02-19T16:09:45.515Z,100371.38
2023-02-19T16:12:18.759Z,100365.53
2023-02-19T16:14:47.368Z,100373.16
2023-02-19T16:17:21.276Z,100362.91
2023-02-19T16:20:00.570Z,100365.16
2023-02-19T16:22:30.477Z,100369.19
2023-02-19T16:25:01.922Z,100376.44
2023-02-19T16:27:41.876Z,100370.53
2023-02-19T16:32:47.712Z,100372.94
2023-02-19T16:35:22.708Z,100370.53
2023-02-19T16:37:59.962Z,100369.88
2023-02-19T16:40:35.536Z,100377.44
2023-02-19T16:45:47.606Z,100365.47
2023-02-19T16:48:14.528Z,100378.28
2023-02-19T16:50:42.352Z,100383.66
2023-02-19T16:55:43.163Z,100390.44
2023-02-19T16:58:09.889Z,100398.22
2023-02-19T17:00:36.637Z,100396.97
2023-02-19T17:03:09.447Z,100390.28
2023-02-19T17:05:38.519Z,100394.34
2023-02-19T17:10:43.272Z,100403.00
2023-02-19T17:13:10.184Z,100406.41
2023-02-19T17:15:36.906Z,100419.09
2023-02-19T17:18:06.508Z,100422.31
2023-02-19T17:20:35.671Z,100419.44
2023-02-19T17:23:02.391Z,100427.88
2023-02-19T17:25:29.377Z,100429.41
2023-02-19T17:27:56.177Z,100445.53
2023-02-19T17:30:29.445Z,100443.75
2023-02-19T17:32:59.255Z,100451.16
2023-02-19T17:35:26.159Z,100462.66
2023-02-19T17:37:55.277Z,100465.50
2023-02-19T17:40:32.657Z,100473.75
2023-02-19T17:43:05.274Z,100474.09
2023-02-19T17:45:35.337Z,100482.09
2023-02-19T17:48:02.107Z,100478.75
2023-02-19T17:50:31.682Z,100484.00
2023-02-19T17:53:02.444Z,100480.78
2023-02-19T17:55:29.336Z,100482.75
2023-02-19T17:57:56.632Z,100474.75
2023-02-19T18:00:29.021Z,100479.47
2023-02-19T18:02:56.287Z,100495.91
2023-02-19T18:05:23.405Z,100491.53
2023-02-19T18:07:51.130Z,100492.53
2023-02-19T18:12:43.605Z,100496.78
2023-02-19T18:15:15.941Z,100494.22
2023-02-19T18:17:45.329Z,100497.63
2023-02-19T18:22:43.643Z,100514.22
2023-02-19T18:25:11.287Z,100516.47
2023-02-19T18:27:38.289Z,100523.16
2023-02-19T18:30:06.136Z,100521.66
2023-02-19T18:32:33.164Z,100517.44
2023-02-19T18:35:02.802Z,100523.16
2023-02-19T18:37:33.171Z,100516.09
2023-02-19T18:40:13.880Z,100528.53
2023-02-19T18:42:40.972Z,100528.56
2023-02-19T18:45:11.415Z,100531.63
2023-02-19T18:47:38.144Z,100524.19
2023-02-19T18:50:08.414Z,100531.25
2023-02-19T18:52:35.532Z,100524.19
2023-02-19T18:55:02.449Z,100527.78
2023-02-19T18:57:30.061Z,100527.78
2023-02-19T18:59:56.782Z,100523.25
2023-02-19T19:02:23.584Z,100521.28
2023-02-19T19:04:53.255Z,100522.78
2023-02-19T19:07:21.436Z,100523.59
2023-02-19T19:09:49.233Z,100522.91
2023-02-19T19:14:43.451Z,100533.66
2023-02-19T19:17:10.376Z,100537.94
2023-02-19T19:19:37.270Z,100533.53
2023-02-19T19:22:04.086Z,100542.00
2023-02-19T19:24:34.373Z,100539.06
2023-02-19T19:27:01.190Z,100536.19
2023-02-19T19:29:28.524Z,100544.47
2023-02-19T19:31:55.388Z,100536.78
2023-02-19T19:34:22.191Z,100541.47
2023-02-19T19:36:49.126Z,100537.81
2023-02-19T19:39:16.172Z,100533.44
2023-02-19T19:41:44.780Z,100537.81
2023-02-19T19:46:45.021Z,100545.72
2023-02-19T19:49:12.438Z,100552.75
2023-02-19T19:51:46.162Z,100558.28
2023-02-19T19:54:14.975Z,100559.47
2023-02-19T19:56:46.492Z,100563.81
2023-02-19T19:59:15.217Z,100570.72
2023-02-19T20:01:52.905Z,100573.72
2023-02-19T20:04:22.030Z,100572.38
2023-02-19T20:06:49.126Z,100570.41
2023-02-19T20:11:51.356Z,100570.06
2023-02-19T20:14:17.948Z,100580.13
2023-02-19T20:16:47.704Z,100574.94
2023-02-19T20:19:16.020Z,100574.94
2023-02-19T20:21:53.567Z,100575.72
2023-02-19T20:24:26.135Z,100585.50
2023-02-19T20:27:02.294Z,100583.28
2023-02-19T20:29:33.394Z,100591.53
2023-02-19T20:32:02.801Z,100588.66
2023-02-19T20:34:32.826Z,100593.22
2023-02-19T20:36:59.785Z,100607.25
2023-02-19T20:39:29.652Z,100595.34
2023-02-19T20:41:58.399Z,100607.31
2023-02-19T20:44:26.740Z,100603.97
2023-02-19T20:46:54.008Z,100595.06
2023-02-19T20:49:24.446Z,100602.59
2023-02-19T20:51:58.167Z,100605.31
2023-02-19T20:54:30.883Z,100606.47
2023-02-19T20:57:00.389Z,100608.81
2023-02-19T20:59:30.981Z,100612.84
2023-02-19T21:01:59.149Z,100610.84
2023-02-19T21:04:26.068Z,100613.00
2023-02-19T21:06:52.916Z,100614.84
2023-02-19T21:09:20.823Z,100617.38
2023-02-19T21:11:48.399Z,100621.91
2023-02-19T21:14:16.260Z,100621.41
2023-02-19T21:16:43.041Z,100614.03
2023-02-19T21:19:10.171Z,100607.00
2023-02-19T21:21:40.534Z,100594.44
2023-02-19T21:26:45.099Z,100602.16
2023-02-19T21:29:19.235Z,100603.66
2023-02-19T21:31:48.254Z,100612.38
2023-02-19T21:34:19.000Z,100615.56
2023-02-19T21:36:46.214Z,100611.88
2023-02-19T21:39:16.502Z,100611.88
2023-02-19T21:41:43.334Z,100613.03
2023-02-19T21:44:10.308Z,100616.72
2023-02-19T21:46:37.301Z,100620.06
2023-02-19T21:49:05.263Z,100613.34
2023-02-19T21:51:37.530Z,100621.59
2023-02-19T21:54:06.083Z,100635.00
2023-02-19T21:56:36.377Z,100635.00
2023-02-19T21:59:16.041Z,100634.50
2023-02-19T22:01:44.811Z,100629.63
2023-02-19T22:04:15.495Z,100628.78
2023-02-19T22:06:42.571Z,100620.41
2023-02-19T22:11:43.595Z,100629.63
2023-02-19T22:14:12.833Z,100627.13
2023-02-19T22:16:39.823Z,100630.81
2023-02-19T22:19:06.522Z,100625.78
2023-02-19T22:21:33.270Z,100637.84
2023-02-19T22:24:01.650Z,100648.22
2023-02-19T22:26:31.968Z,100656.28
2023-02-19T22:28:59.749Z,100668.34
2023-02-19T22:31:28.224Z,100664.84
2023-02-19T22:33:56.549Z,100675.06
2023-02-19T22:36:28.162Z,100670.03
2023-02-19T22:38:54.895Z,100669.69
2023-02-19T22:41:24.616Z,100660.47
2023-02-19T22:43:54.894Z,100665.00
2023-02-19T22:46:24.748Z,100654.91
2023-02-19T22:48:51.703Z,100663.28
2023-02-19T22:51:21.733Z,100662.31
2023-02-19T22:53:51.466Z,100661.47
2023-02-19T22:56:18.054Z,100667.81
2023-02-19T22:58:45.081Z,100655.94
2023-02-19T23:01:13.805Z,100656.25
2023-02-19T23:03:46.625Z,100664.97
2023-02-19T23:06:16.715Z,100654.59
2023-02-19T23:08:44.306Z,100656.75
2023-02-19T23:11:12.974Z,100647.03
2023-02-19T23:13:45.838Z,100638.84
2023-02-19T23:16:16.203Z,100640.50
2023-02-19T23:18:43.045Z,100641.88
2023-02-19T23:21:11.229Z,100638.84
2023-02-19T23:23:40.869Z,100644.38
2023-02-19T23:26:10.941Z,100652.25
2023-02-19T23:28:40.437Z,100641.19
2023-02-19T23:31:07.434Z,100647.88
2023-02-19T23:33:34.594Z,100649.06
2023-02-19T23:36:01.343Z,100649.91
2023-02-19T23:38:28.256Z,100641.88
2023-02-19T23:41:01.832Z,100649.25
2023-02-19T23:43:28.932Z,100646.91
2023-02-19T23:45:55.761Z,100654.44
2023-02-19T23:48:22.787Z,100652.25
2023-02-19T23:50:49.686Z,100652.91
2023-02-19T23:53:16.430Z,100659.63
2023-02-19T23:55:43.142Z,100670.34
2023-02-19T23:58:11.598Z,100666.97
